Shinyo Maru — 7JVV — position and weather

sailwx.info

Track history (hours):
 
Tides and Currents Weather Stations Pressure Air Temp Water Temp Dewpoint Dewpoint Depression Visibility Wind Speed Wind Dir Waves Ship Positions

Shinyo Maru

Last reported at 2018-Feb-01 12:03 UTC. Time now 2018-Feb-23 01:09 UTC.
Position N 34°29' E 138°53'.
Warning: this ship's position is 21 days out of date.

Length 64 m; draft 4.6 m.

Type: Other ship. MMSI: 431328000.

Date/timePositionNaut miles runAvg speedWind from/ knotsBaromVisibWave heightAir tempDewpointWater temp
2018-Feb-01 12:03N 34°29' E 138°53'0 7.7
2018-Feb-01 12:00N 34°29' E 138°54'8 7.0
2018-Feb-01 10:56N 34°32' E 139°02'3 7.4
2018-Feb-01 10:28N 34°35' E 139°03'4 8.6
2018-Feb-01 10:00N 34°39' E 139°05'7 9.4
2018-Feb-01 09:18N 34°45' E 139°09'3 8.8
2018-Feb-01 08:58N 34°47' E 139°11'4 8.5
2018-Feb-01 08:29N 34°50' E 139°14'9 8.1
2018-Feb-01 07:22N 34°56' E 139°23'3 7.5
2018-Feb-01 06:56N 34°58' E 139°26'3 7.4
2018-Feb-01 06:30N 34°60' E 139°29'4 7.6
2018-Feb-01 06:00N 35°02' E 139°33'4 8.8
2018-Feb-01 05:30N 35°04' E 139°37'510.2
2018-Feb-01 05:00N 35°07' E 139°42'5 9.8
2018-Feb-01 04:30N 35°12' E 139°46'4 8.8
2018-Feb-01 04:01N 35°16' E 139°46'9 8.7
2018-Feb-01 03:00N 35°24' E 139°43'5 9.6
2018-Feb-01 02:31N 35°27' E 139°48'4 8.8
2018-Feb-01 02:01N 35°31' E 139°51'4 8.8
2018-Feb-01 01:31N 35°35' E 139°48'4 8.2
2018-Feb-01 00:59N 35°39' E 139°47'  
2018-Jan-29 01:58N 35°39' E 139°47'2 4.4
2018-Jan-29 01:30N 35°37' E 139°46'5 9.2
2018-Jan-29 01:00N 35°34' E 139°50'3 4.5
2018-Jan-29 00:23N 35°35' E 139°53'0 0.1
2018-Jan-28 23:56N 35°35' E 139°53'0 0.0
2018-Jan-28 23:29N 35°35' E 139°53'0 0.0
2018-Jan-28 22:38N 35°35' E 139°53'0 0.0
2018-Jan-28 22:29N 35°35' E 139°53'0 0.0
2018-Jan-28 21:59N 35°35' E 139°53'0 0.0
2018-Jan-28 21:29N 35°35' E 139°53'0 0.0
2018-Jan-28 20:56N 35°35' E 139°53'0 0.0
2018-Jan-28 20:29N 35°35' E 139°53'0 0.0
2018-Jan-28 19:53N 35°35' E 139°53'0 0.0
2018-Jan-28 19:29N 35°35' E 139°53'0 0.0
2018-Jan-28 18:59N 35°35' E 139°53'0 0.0
2018-Jan-28 18:29N 35°35' E 139°53'0 0.0
2018-Jan-28 17:53N 35°35' E 139°53'0 0.0
2018-Jan-28 17:23N 35°35' E 139°53'0 0.1
2018-Jan-28 16:59N 35°35' E 139°53'0 0.0
2018-Jan-28 16:29N 35°35' E 139°53'0 0.0
2018-Jan-28 15:53N 35°35' E 139°53'0 0.0
2018-Jan-28 15:23N 35°35' E 139°53'0 0.1
2018-Jan-28 14:59N 35°35' E 139°53'0 0.0
2018-Jan-28 14:23N 35°35' E 139°53'0 0.0
2018-Jan-28 13:11N 35°35' E 139°53'0 0.0
2018-Jan-28 12:59N 35°35' E 139°53'0 0.0
2018-Jan-28 11:44N 35°35' E 139°53'0 0.0
2018-Jan-28 10:35N 35°35' E 139°53'0 0.0
2018-Jan-28 09:23N 35°35' E 139°53'0 0.0
2018-Jan-28 08:47N 35°35' E 139°53'1 3.8
2018-Jan-28 08:30N 35°34' E 139°53'4 8.0
2018-Jan-28 08:01N 35°30' E 139°53'4 7.7
2018-Jan-28 07:30N 35°27' E 139°49'4 7.6
2018-Jan-28 07:01N 35°24' E 139°46'4 8.9
2018-Jan-28 06:31N 35°20' E 139°44'4 8.3
2018-Jan-28 06:00N 35°16' E 139°47'4 8.8
2018-Jan-28 05:30N 35°12' E 139°47'5 9.2
2018-Jan-28 05:00N 35°07' E 139°47'5 9.1
2018-Jan-28 04:30N 35°03' E 139°47'3 4.5
2018-Jan-28 03:46N 35°01' E 139°50'0 0.0
2018-Jan-28 03:29N 35°01' E 139°50'0 0.0
2018-Jan-28 02:58N 35°01' E 139°50'0 0.0
2018-Jan-28 02:28N 35°01' E 139°50'0 0.0
2018-Jan-28 01:58N 35°01' E 139°50'0 0.1
2018-Jan-28 01:28N 35°00' E 139°50'0 0.0
2018-Jan-28 00:58N 35°01' E 139°50'0 0.0
2018-Jan-28 00:16N 35°01' E 139°50'0 0.0
2018-Jan-27 23:58N 35°01' E 139°50'0 0.0
2018-Jan-27 23:28N 35°01' E 139°50'0 0.0
2018-Jan-27 22:58N 35°00' E 139°50'0 0.0
2018-Jan-27 22:28N 35°00' E 139°50'0 0.0
2018-Jan-27 21:58N 35°00' E 139°50'0 0.0
2018-Jan-27 21:28N 35°00' E 139°50'0 0.0
2018-Jan-27 20:52N 35°00' E 139°50'0 0.0
2018-Jan-27 20:28N 35°00' E 139°50'0 0.0
2018-Jan-27 19:58N 35°01' E 139°50'0 0.0
2018-Jan-27 19:28N 35°01' E 139°50'0 0.0
2018-Jan-27 18:52N 35°00' E 139°50'0 0.0
2018-Jan-27 18:28N 35°00' E 139°50'0 0.0
2018-Jan-27 17:58N 35°00' E 139°50'0 0.0
2018-Jan-27 17:28N 35°00' E 139°50'0 0.0
2018-Jan-27 16:58N 35°00' E 139°50'0 0.0
2018-Jan-27 16:25N 35°00' E 139°50'0 0.0
2018-Jan-27 15:58N 35°00' E 139°50'0 0.0
2018-Jan-27 15:28N 35°00' E 139°50'0 0.0
2018-Jan-27 14:58N 35°00' E 139°50'0 0.0
2018-Jan-27 14:28N 35°00' E 139°50'0 0.0
2018-Jan-27 13:58N 35°00' E 139°50'0 0.0
2018-Jan-27 13:28N 35°00' E 139°50'0 0.0
2018-Jan-27 12:58N 35°00' E 139°50'0 0.0
2018-Jan-27 12:22N 35°00' E 139°50'0 0.0
2018-Jan-27 11:52N 35°00' E 139°50'0 0.0
2018-Jan-27 11:28N 35°00' E 139°50'0 0.0
2018-Jan-27 10:58N 35°01' E 139°50'0 0.0
2018-Jan-27 10:16N 35°00' E 139°50'0 0.1
2018-Jan-27 09:52N 35°01' E 139°50'0 0.0
2018-Jan-27 09:28N 35°01' E 139°50'0 0.0
2018-Jan-27 08:58N 35°01' E 139°50'0 0.0
2018-Jan-27 08:10N 35°01' E 139°50'0 0.0
2018-Jan-27 07:52N 35°01' E 139°50'0 0.0
2018-Jan-27 07:28N 35°00' E 139°50'0 0.1
2018-Jan-27 06:40N 35°00' E 139°50'0 0.2
2018-Jan-27 06:28N 35°00' E 139°50'0 0.1
2018-Jan-27 05:58N 35°01' E 139°50'3 6.8
2018-Jan-27 05:30N 35°02' E 139°47'5 9.5
2018-Jan-27 05:00N 35°07' E 139°46'5 9.6
2018-Jan-27 04:30N 35°12' E 139°46'5 9.4
2018-Jan-27 04:00N 35°16' E 139°45'5 9.5
2018-Jan-27 03:30N 35°21' E 139°42'4 8.8
2018-Jan-27 03:00N 35°25' E 139°44'5 9.1
2018-Jan-27 02:30N 35°28' E 139°48'4 8.5
2018-Jan-27 02:00N 35°31' E 139°51'4 9.0
2018-Jan-27 01:30N 35°35' E 139°48'4 8.8
2018-Jan-27 01:00N 35°39' E 139°46'0 0.4
2018-Jan-27 00:26N 35°39' E 139°46'0 0.0
2018-Jan-26 23:26N 35°39' E 139°46'0 0.0
2018-Jan-26 22:50N 35°39' E 139°46'0 0.0
2018-Jan-26 21:32N 35°39' E 139°46'0 0.0
2018-Jan-26 21:26N 35°39' E 139°46'0 0.0
2018-Jan-26 20:50N 35°39' E 139°46'0 0.0
2018-Jan-26 20:14N 35°39' E 139°46'0 0.0
2018-Jan-26 19:56N 35°39' E 139°46'0 0.0
2018-Jan-26 19:26N 35°39' E 139°46'0 0.0
2018-Jan-26 18:56N 35°39' E 139°46'0 0.0
2018-Jan-26 18:20N 35°39' E 139°46'0 0.0
2018-Jan-26 17:50N 35°39' E 139°46'0 0.0
2018-Jan-26 17:26N 35°39' E 139°46'0 0.0
2018-Jan-26 16:50N 35°39' E 139°46'0 0.0
2018-Jan-26 16:14N 35°39' E 139°46'0 0.0
2018-Jan-26 15:56N 35°39' E 139°46'0 0.0
2018-Jan-26 15:26N 35°39' E 139°46'0 0.0
2018-Jan-26 14:56N 35°39' E 139°46'0 0.0
2018-Jan-26 14:26N 35°39' E 139°46'0 0.0
2018-Jan-26 13:56N 35°39' E 139°46'0 0.0
2018-Jan-26 13:20N 35°39' E 139°46'0 0.0
2018-Jan-26 12:56N 35°39' E 139°46'0 0.0
2018-Jan-26 12:26N 35°39' E 139°46'0 0.0
2018-Jan-26 10:14N 35°39' E 139°46'0 0.0
2018-Jan-26 09:44N 35°39' E 139°46'0 0.0
2018-Jan-26 09:26N 35°39' E 139°46'0 0.0
2018-Jan-26 08:50N 35°39' E 139°46'0 0.0
2018-Jan-26 08:26N 35°39' E 139°46'0 0.0
2018-Jan-26 07:56N 35°39' E 139°46'0 0.0
2018-Jan-26 07:14N 35°39' E 139°46'0 0.0
2018-Jan-26 06:56N 35°39' E 139°46'0 0.0
2018-Jan-26 06:26N 35°39' E 139°46'0 0.0
2018-Jan-26 05:56N 35°39' E 139°46'0 0.0
2018-Jan-26 01:20N 35°39' E 139°46'0 0.0
2018-Jan-26 00:44N 35°39' E 139°46'0 0.0
2018-Jan-26 00:26N 35°39' E 139°46'0 0.0
2018-Jan-25 23:14N 35°39' E 139°46'0 0.0
2018-Jan-25 22:56N 35°39' E 139°46'0 0.0
2018-Jan-25 21:20N 35°39' E 139°46'0 0.0
2018-Jan-25 20:56N 35°39' E 139°46'0 0.0
2018-Jan-25 16:44N 35°39' E 139°46'0 0.0
2018-Jan-25 14:50N 35°39' E 139°46'0 0.0
2018-Jan-25 14:14N 35°39' E 139°46'0 0.0
2018-Jan-25 13:56N 35°39' E 139°46'0 0.0
2018-Jan-25 13:26N 35°39' E 139°46'0 0.0
2018-Jan-25 12:38N 35°39' E 139°46'0 0.0
2018-Jan-25 12:08N 35°39' E 139°46'0 0.0
2018-Jan-25 07:26N 35°39' E 139°46'0 0.0
2018-Jan-25 04:14N 35°39' E 139°46'0 0.0
2018-Jan-25 03:50N 35°39' E 139°46'0 0.0
2018-Jan-25 02:14N 35°39' E 139°46'0 0.0
2018-Jan-25 01:50N 35°39' E 139°46'0 0.0
2018-Jan-25 01:26N 35°39' E 139°46'0 0.0
2018-Jan-25 00:56N 35°39' E 139°46'0 0.0
2018-Jan-24 23:32N 35°39' E 139°46'0 0.0
2018-Jan-24 23:14N 35°39' E 139°46'0 0.0
2018-Jan-24 22:56N 35°39' E 139°46'0 0.0
2018-Jan-24 22:20N 35°39' E 139°46'0 0.0
2018-Jan-24 21:56N 35°39' E 139°46'0 0.0
2018-Jan-24 21:20N 35°39' E 139°46'0 0.0
2018-Jan-24 20:38N 35°39' E 139°46'0 0.0
2018-Jan-24 20:26N 35°39' E 139°46'0 0.0
2018-Jan-24 19:56N 35°39' E 139°46'0 0.0
2018-Jan-24 18:44N 35°39' E 139°46'0 0.0
2018-Jan-24 18:14N 35°39' E 139°46'0 0.0
2018-Jan-24 17:44N 35°39' E 139°46'0 0.0
2018-Jan-24 17:20N 35°39' E 139°46'0 0.0
2018-Jan-24 16:38N 35°39' E 139°46'0 0.0
2018-Jan-24 16:20N 35°39' E 139°46'0 0.0
2018-Jan-24 15:50N 35°39' E 139°46'0 0.0
2018-Jan-24 15:26N 35°39' E 139°46'0 0.0
2018-Jan-24 14:50N 35°39' E 139°46'0 0.0
2018-Jan-24 14:26N 35°39' E 139°46'0 0.0
2018-Jan-24 13:56N 35°39' E 139°46'0 0.0
2018-Jan-24 13:20N 35°39' E 139°46'0 0.0
2018-Jan-24 12:56N 35°39' E 139°46'0 0.0
2018-Jan-24 12:26N 35°39' E 139°46'0 0.0
2018-Jan-24 11:56N 35°39' E 139°46'0 0.0
2018-Jan-24 11:14N 35°39' E 139°46'0 0.0
2018-Jan-24 10:56N 35°39' E 139°46'0 0.0
2018-Jan-24 09:32N 35°39' E 139°46'0 0.0
2018-Jan-24 09:14N 35°39' E 139°46'0 0.0
2018-Jan-24 08:44N 35°39' E 139°46'0 0.0
2018-Jan-24 08:20N 35°39' E 139°46'0 0.0
2018-Jan-24 07:56N 35°39' E 139°46'0 0.0
2018-Jan-24 07:26N 35°39' E 139°46'0 0.0
2018-Jan-24 05:26N 35°39' E 139°46'0 0.0
2018-Jan-24 02:56N 35°39' E 139°46'0 0.0
2018-Jan-23 23:50N 35°39' E 139°46'0 0.0
2018-Jan-23 23:20N 35°39' E 139°46'0 0.0
2018-Jan-23 22:56N 35°39' E 139°46'0 0.0
2018-Jan-23 22:26N 35°39' E 139°46'0 0.0
2018-Jan-23 21:32N 35°39' E 139°46'0 0.0
2018-Jan-23 21:26N 35°39' E 139°46'0 0.0
2018-Jan-23 20:56N 35°39' E 139°46'0 0.0
2018-Jan-23 20:26N 35°39' E 139°46'0 0.0
2018-Jan-23 19:56N 35°39' E 139°46'0 0.0
2018-Jan-23 19:26N 35°39' E 139°46'0 0.0
2018-Jan-23 18:44N 35°39' E 139°46'0 0.0
2018-Jan-23 15:26N 35°39' E 139°46'0 0.0
2018-Jan-23 14:44N 35°39' E 139°46'0 0.0
2018-Jan-23 14:20N 35°39' E 139°46'0 0.0
2018-Jan-23 13:08N 35°39' E 139°46'0 0.0
2018-Jan-23 12:56N 35°39' E 139°46'0 0.0
2018-Jan-23 12:02N 35°39' E 139°46'0 0.0
2018-Jan-23 11:50N 35°39' E 139°46'0 0.0
2018-Jan-23 11:26N 35°39' E 139°46'0 0.0
2018-Jan-23 10:50N 35°39' E 139°46'0 0.0
2018-Jan-23 08:50N 35°39' E 139°46'0 0.0
2018-Jan-23 08:26N 35°39' E 139°46'0 0.0
2018-Jan-23 07:38N 35°39' E 139°46'0 0.0
2018-Jan-23 07:26N 35°39' E 139°46'0 0.0
2018-Jan-23 06:50N 35°39' E 139°46'0 0.0
2018-Jan-23 06:26N 35°39' E 139°46'0 0.0
2018-Jan-23 04:44N 35°39' E 139°46'0 0.0
2018-Jan-23 04:26N 35°39' E 139°46'0 0.0
2018-Jan-23 03:56N 35°39' E 139°46'0 0.0
2018-Jan-23 02:14N 35°39' E 139°46'0 0.0
2018-Jan-23 00:32N 35°39' E 139°46'0 0.0
2018-Jan-23 00:20N 35°39' E 139°46'0 0.0
2018-Jan-22 23:44N 35°39' E 139°46'0 0.0
2018-Jan-22 23:20N 35°39' E 139°46'  
Track history (hours):
 
Tides and Currents Weather Stations Pressure Air Temp Water Temp Dewpoint Dewpoint Depression Visibility Wind Speed Wind Dir Waves Ship Positions

Shinyo Maru

Last reported at 2018-Feb-01 12:03 UTC. Time now 2018-Feb-23 01:09 UTC.
Position N 34°29' E 138°53'.
Warning: this ship's position is 21 days out of date.

Length 64 m; draft 4.6 m.

Type: Other ship. MMSI: 431328000.

Date/timePositionNaut miles runAvg speedWind from/ knotsBaromVisibWave heightAir tempDewpointWater temp
2018-Feb-01 12:03N 34°29' E 138°53'0 7.7
2018-Feb-01 12:00N 34°29' E 138°54'8 7.0
2018-Feb-01 10:56N 34°32' E 139°02'3 7.4
2018-Feb-01 10:28N 34°35' E 139°03'4 8.6
2018-Feb-01 10:00N 34°39' E 139°05'7 9.4
2018-Feb-01 09:18N 34°45' E 139°09'3 8.8
2018-Feb-01 08:58N 34°47' E 139°11'4 8.5
2018-Feb-01 08:29N 34°50' E 139°14'9 8.1
2018-Feb-01 07:22N 34°56' E 139°23'3 7.5
2018-Feb-01 06:56N 34°58' E 139°26'3 7.4
2018-Feb-01 06:30N 34°60' E 139°29'4 7.6
2018-Feb-01 06:00N 35°02' E 139°33'4 8.8
2018-Feb-01 05:30N 35°04' E 139°37'510.2
2018-Feb-01 05:00N 35°07' E 139°42'5 9.8
2018-Feb-01 04:30N 35°12' E 139°46'4 8.8
2018-Feb-01 04:01N 35°16' E 139°46'9 8.7
2018-Feb-01 03:00N 35°24' E 139°43'5 9.6
2018-Feb-01 02:31N 35°27' E 139°48'4 8.8
2018-Feb-01 02:01N 35°31' E 139°51'4 8.8
2018-Feb-01 01:31N 35°35' E 139°48'4 8.2
2018-Feb-01 00:59N 35°39' E 139°47'  
2018-Jan-29 01:58N 35°39' E 139°47'2 4.4
2018-Jan-29 01:30N 35°37' E 139°46'5 9.2
2018-Jan-29 01:00N 35°34' E 139°50'3 4.5
2018-Jan-29 00:23N 35°35' E 139°53'0 0.1
2018-Jan-28 23:56N 35°35' E 139°53'0 0.0
2018-Jan-28 23:29N 35°35' E 139°53'0 0.0
2018-Jan-28 22:38N 35°35' E 139°53'0 0.0
2018-Jan-28 22:29N 35°35' E 139°53'0 0.0
2018-Jan-28 21:59N 35°35' E 139°53'0 0.0
2018-Jan-28 21:29N 35°35' E 139°53'0 0.0
2018-Jan-28 20:56N 35°35' E 139°53'0 0.0
2018-Jan-28 20:29N 35°35' E 139°53'0 0.0
2018-Jan-28 19:53N 35°35' E 139°53'0 0.0
2018-Jan-28 19:29N 35°35' E 139°53'0 0.0
2018-Jan-28 18:59N 35°35' E 139°53'0 0.0
2018-Jan-28 18:29N 35°35' E 139°53'0 0.0
2018-Jan-28 17:53N 35°35' E 139°53'0 0.0
2018-Jan-28 17:23N 35°35' E 139°53'0 0.1
2018-Jan-28 16:59N 35°35' E 139°53'0 0.0
2018-Jan-28 16:29N 35°35' E 139°53'0 0.0
2018-Jan-28 15:53N 35°35' E 139°53'0 0.0
2018-Jan-28 15:23N 35°35' E 139°53'0 0.1
2018-Jan-28 14:59N 35°35' E 139°53'0 0.0
2018-Jan-28 14:23N 35°35' E 139°53'0 0.0
2018-Jan-28 13:11N 35°35' E 139°53'0 0.0
2018-Jan-28 12:59N 35°35' E 139°53'0 0.0
2018-Jan-28 11:44N 35°35' E 139°53'0 0.0
2018-Jan-28 10:35N 35°35' E 139°53'0 0.0
2018-Jan-28 09:23N 35°35' E 139°53'0 0.0
2018-Jan-28 08:47N 35°35' E 139°53'1 3.8
2018-Jan-28 08:30N 35°34' E 139°53'4 8.0
2018-Jan-28 08:01N 35°30' E 139°53'4 7.7
2018-Jan-28 07:30N 35°27' E 139°49'4 7.6
2018-Jan-28 07:01N 35°24' E 139°46'4 8.9
2018-Jan-28 06:31N 35°20' E 139°44'4 8.3
2018-Jan-28 06:00N 35°16' E 139°47'4 8.8
2018-Jan-28 05:30N 35°12' E 139°47'5 9.2
2018-Jan-28 05:00N 35°07' E 139°47'5 9.1
2018-Jan-28 04:30N 35°03' E 139°47'3 4.5
2018-Jan-28 03:46N 35°01' E 139°50'0 0.0
2018-Jan-28 03:29N 35°01' E 139°50'0 0.0
2018-Jan-28 02:58N 35°01' E 139°50'0 0.0
2018-Jan-28 02:28N 35°01' E 139°50'0 0.0
2018-Jan-28 01:58N 35°01' E 139°50'0 0.1
2018-Jan-28 01:28N 35°00' E 139°50'0 0.0
2018-Jan-28 00:58N 35°01' E 139°50'0 0.0
2018-Jan-28 00:16N 35°01' E 139°50'0 0.0
2018-Jan-27 23:58N 35°01' E 139°50'0 0.0
2018-Jan-27 23:28N 35°01' E 139°50'0 0.0
2018-Jan-27 22:58N 35°00' E 139°50'0 0.0
2018-Jan-27 22:28N 35°00' E 139°50'0 0.0
2018-Jan-27 21:58N 35°00' E 139°50'0 0.0
2018-Jan-27 21:28N 35°00' E 139°50'0 0.0
2018-Jan-27 20:52N 35°00' E 139°50'0 0.0
2018-Jan-27 20:28N 35°00' E 139°50'0 0.0
2018-Jan-27 19:58N 35°01' E 139°50'0 0.0
2018-Jan-27 19:28N 35°01' E 139°50'0 0.0
2018-Jan-27 18:52N 35°00' E 139°50'0 0.0
2018-Jan-27 18:28N 35°00' E 139°50'0 0.0
2018-Jan-27 17:58N 35°00' E 139°50'0 0.0
2018-Jan-27 17:28N 35°00' E 139°50'0 0.0
2018-Jan-27 16:58N 35°00' E 139°50'0 0.0
2018-Jan-27 16:25N 35°00' E 139°50'0 0.0
2018-Jan-27 15:58N 35°00' E 139°50'0 0.0
2018-Jan-27 15:28N 35°00' E 139°50'0 0.0
2018-Jan-27 14:58N 35°00' E 139°50'0 0.0
2018-Jan-27 14:28N 35°00' E 139°50'0 0.0
2018-Jan-27 13:58N 35°00' E 139°50'0 0.0
2018-Jan-27 13:28N 35°00' E 139°50'0 0.0
2018-Jan-27 12:58N 35°00' E 139°50'0 0.0
2018-Jan-27 12:22N 35°00' E 139°50'0 0.0
2018-Jan-27 11:52N 35°00' E 139°50'0 0.0
2018-Jan-27 11:28N 35°00' E 139°50'0 0.0
2018-Jan-27 10:58N 35°01' E 139°50'0 0.0
2018-Jan-27 10:16N 35°00' E 139°50'0 0.1
2018-Jan-27 09:52N 35°01' E 139°50'0 0.0
2018-Jan-27 09:28N 35°01' E 139°50'0 0.0
2018-Jan-27 08:58N 35°01' E 139°50'0 0.0
2018-Jan-27 08:10N 35°01' E 139°50'0 0.0
2018-Jan-27 07:52N 35°01' E 139°50'0 0.0
2018-Jan-27 07:28N 35°00' E 139°50'0 0.1
2018-Jan-27 06:40N 35°00' E 139°50'0 0.2
2018-Jan-27 06:28N 35°00' E 139°50'0 0.1
2018-Jan-27 05:58N 35°01' E 139°50'3 6.8
2018-Jan-27 05:30N 35°02' E 139°47'5 9.5
2018-Jan-27 05:00N 35°07' E 139°46'5 9.6
2018-Jan-27 04:30N 35°12' E 139°46'5 9.4
2018-Jan-27 04:00N 35°16' E 139°45'5 9.5
2018-Jan-27 03:30N 35°21' E 139°42'4 8.8
2018-Jan-27 03:00N 35°25' E 139°44'5 9.1
2018-Jan-27 02:30N 35°28' E 139°48'4 8.5
2018-Jan-27 02:00N 35°31' E 139°51'4 9.0
2018-Jan-27 01:30N 35°35' E 139°48'4 8.8
2018-Jan-27 01:00N 35°39' E 139°46'0 0.4
2018-Jan-27 00:26N 35°39' E 139°46'0 0.0
2018-Jan-26 23:26N 35°39' E 139°46'0 0.0
2018-Jan-26 22:50N 35°39' E 139°46'0 0.0
2018-Jan-26 21:32N 35°39' E 139°46'0 0.0
2018-Jan-26 21:26N 35°39' E 139°46'0 0.0
2018-Jan-26 20:50N 35°39' E 139°46'0 0.0
2018-Jan-26 20:14N 35°39' E 139°46'0 0.0
2018-Jan-26 19:56N 35°39' E 139°46'0 0.0
2018-Jan-26 19:26N 35°39' E 139°46'0 0.0
2018-Jan-26 18:56N 35°39' E 139°46'0 0.0
2018-Jan-26 18:20N 35°39' E 139°46'0 0.0
2018-Jan-26 17:50N 35°39' E 139°46'0 0.0
2018-Jan-26 17:26N 35°39' E 139°46'0 0.0
2018-Jan-26 16:50N 35°39' E 139°46'0 0.0
2018-Jan-26 16:14N 35°39' E 139°46'0 0.0
2018-Jan-26 15:56N 35°39' E 139°46'0 0.0
2018-Jan-26 15:26N 35°39' E 139°46'0 0.0
2018-Jan-26 14:56N 35°39' E 139°46'0 0.0
2018-Jan-26 14:26N 35°39' E 139°46'0 0.0
2018-Jan-26 13:56N 35°39' E 139°46'0 0.0
2018-Jan-26 13:20N 35°39' E 139°46'0 0.0
2018-Jan-26 12:56N 35°39' E 139°46'0 0.0
2018-Jan-26 12:26N 35°39' E 139°46'0 0.0
2018-Jan-26 10:14N 35°39' E 139°46'0 0.0
2018-Jan-26 09:44N 35°39' E 139°46'0 0.0
2018-Jan-26 09:26N 35°39' E 139°46'0 0.0
2018-Jan-26 08:50N 35°39' E 139°46'0 0.0
2018-Jan-26 08:26N 35°39' E 139°46'0 0.0
2018-Jan-26 07:56N 35°39' E 139°46'0 0.0
2018-Jan-26 07:14N 35°39' E 139°46'0 0.0
2018-Jan-26 06:56N 35°39' E 139°46'0 0.0
2018-Jan-26 06:26N 35°39' E 139°46'0 0.0
2018-Jan-26 05:56N 35°39' E 139°46'0 0.0
2018-Jan-26 01:20N 35°39' E 139°46'0 0.0
2018-Jan-26 00:44N 35°39' E 139°46'0 0.0
2018-Jan-26 00:26N 35°39' E 139°46'0 0.0
2018-Jan-25 23:14N 35°39' E 139°46'0 0.0
2018-Jan-25 22:56N 35°39' E 139°46'0 0.0
2018-Jan-25 21:20N 35°39' E 139°46'0 0.0
2018-Jan-25 20:56N 35°39' E 139°46'0 0.0
2018-Jan-25 16:44N 35°39' E 139°46'0 0.0
2018-Jan-25 14:50N 35°39' E 139°46'0 0.0
2018-Jan-25 14:14N 35°39' E 139°46'0 0.0
2018-Jan-25 13:56N 35°39' E 139°46'0 0.0
2018-Jan-25 13:26N 35°39' E 139°46'0 0.0
2018-Jan-25 12:38N 35°39' E 139°46'0 0.0
2018-Jan-25 12:08N 35°39' E 139°46'0 0.0
2018-Jan-25 07:26N 35°39' E 139°46'0 0.0
2018-Jan-25 04:14N 35°39' E 139°46'0 0.0
2018-Jan-25 03:50N 35°39' E 139°46'0 0.0
2018-Jan-25 02:14N 35°39' E 139°46'0 0.0
2018-Jan-25 01:50N 35°39' E 139°46'0 0.0
2018-Jan-25 01:26N 35°39' E 139°46'0 0.0
2018-Jan-25 00:56N 35°39' E 139°46'0 0.0
2018-Jan-24 23:32N 35°39' E 139°46'0 0.0
2018-Jan-24 23:14N 35°39' E 139°46'0 0.0
2018-Jan-24 22:56N 35°39' E 139°46'0 0.0
2018-Jan-24 22:20N 35°39' E 139°46'0 0.0
2018-Jan-24 21:56N 35°39' E 139°46'0 0.0
2018-Jan-24 21:20N 35°39' E 139°46'0 0.0
2018-Jan-24 20:38N 35°39' E 139°46'0 0.0
2018-Jan-24 20:26N 35°39' E 139°46'0 0.0
2018-Jan-24 19:56N 35°39' E 139°46'0 0.0
2018-Jan-24 18:44N 35°39' E 139°46'0 0.0
2018-Jan-24 18:14N 35°39' E 139°46'0 0.0
2018-Jan-24 17:44N 35°39' E 139°46'0 0.0
2018-Jan-24 17:20N 35°39' E 139°46'0 0.0
2018-Jan-24 16:38N 35°39' E 139°46'0 0.0
2018-Jan-24 16:20N 35°39' E 139°46'0 0.0
2018-Jan-24 15:50N 35°39' E 139°46'0 0.0
2018-Jan-24 15:26N 35°39' E 139°46'0 0.0
2018-Jan-24 14:50N 35°39' E 139°46'0 0.0
2018-Jan-24 14:26N 35°39' E 139°46'0 0.0
2018-Jan-24 13:56N 35°39' E 139°46'0 0.0
2018-Jan-24 13:20N 35°39' E 139°46'0 0.0
2018-Jan-24 12:56N 35°39' E 139°46'0 0.0
2018-Jan-24 12:26N 35°39' E 139°46'0 0.0
2018-Jan-24 11:56N 35°39' E 139°46'0 0.0
2018-Jan-24 11:14N 35°39' E 139°46'0 0.0
2018-Jan-24 10:56N 35°39' E 139°46'0 0.0
2018-Jan-24 09:32N 35°39' E 139°46'0 0.0
2018-Jan-24 09:14N 35°39' E 139°46'0 0.0
2018-Jan-24 08:44N 35°39' E 139°46'0 0.0
2018-Jan-24 08:20N 35°39' E 139°46'0 0.0
2018-Jan-24 07:56N 35°39' E 139°46'0 0.0
2018-Jan-24 07:26N 35°39' E 139°46'0 0.0
2018-Jan-24 05:26N 35°39' E 139°46'0 0.0
2018-Jan-24 02:56N 35°39' E 139°46'0 0.0
2018-Jan-23 23:50N 35°39' E 139°46'0 0.0
2018-Jan-23 23:20N 35°39' E 139°46'0 0.0
2018-Jan-23 22:56N 35°39' E 139°46'0 0.0
2018-Jan-23 22:26N 35°39' E 139°46'0 0.0
2018-Jan-23 21:32N 35°39' E 139°46'0 0.0
2018-Jan-23 21:26N 35°39' E 139°46'0 0.0
2018-Jan-23 20:56N 35°39' E 139°46'0 0.0
2018-Jan-23 20:26N 35°39' E 139°46'0 0.0
2018-Jan-23 19:56N 35°39' E 139°46'0 0.0
2018-Jan-23 19:26N 35°39' E 139°46'0 0.0
2018-Jan-23 18:44N 35°39' E 139°46'0 0.0
2018-Jan-23 15:26N 35°39' E 139°46'0 0.0
2018-Jan-23 14:44N 35°39' E 139°46'0 0.0
2018-Jan-23 14:20N 35°39' E 139°46'0 0.0
2018-Jan-23 13:08N 35°39' E 139°46'0 0.0
2018-Jan-23 12:56N 35°39' E 139°46'0 0.0
2018-Jan-23 12:02N 35°39' E 139°46'0 0.0
2018-Jan-23 11:50N 35°39' E 139°46'0 0.0
2018-Jan-23 11:26N 35°39' E 139°46'0 0.0
2018-Jan-23 10:50N 35°39' E 139°46'0 0.0
2018-Jan-23 08:50N 35°39' E 139°46'0 0.0
2018-Jan-23 08:26N 35°39' E 139°46'0 0.0
2018-Jan-23 07:38N 35°39' E 139°46'0 0.0
2018-Jan-23 07:26N 35°39' E 139°46'0 0.0
2018-Jan-23 06:50N 35°39' E 139°46'0 0.0
2018-Jan-23 06:26N 35°39' E 139°46'0 0.0
2018-Jan-23 04:44N 35°39' E 139°46'0 0.0
2018-Jan-23 04:26N 35°39' E 139°46'0 0.0
2018-Jan-23 03:56N 35°39' E 139°46'0 0.0
2018-Jan-23 02:14N 35°39' E 139°46'0 0.0
2018-Jan-23 00:32N 35°39' E 139°46'0 0.0
2018-Jan-23 00:20N 35°39' E 139°46'0 0.0
2018-Jan-22 23:44N 35°39' E 139°46'0 0.0
2018-Jan-22 23:20N 35°39' E 139°46'  

Dump ship's entire track history